sensor_id;sensor_type;location;lat;lon;timestamp;temperature;humidity
78325;DHT22;67584;51.400;6.692;2024-01-07T00:00:24;2.20;92.20
78325;DHT22;67584;51.400;6.692;2024-01-07T00:02:50;2.20;92.20
78325;DHT22;67584;51.400;6.692;2024-01-07T00:05:15;2.10;92.20
78325;DHT22;67584;51.400;6.692;2024-01-07T00:07:41;2.10;92.20
78325;DHT22;67584;51.400;6.692;2024-01-07T00:10:07;2.10;92.20
78325;DHT22;67584;51.400;6.692;2024-01-07T00:12:34;2.00;92.20
78325;DHT22;67584;51.400;6.692;2024-01-07T00:15:01;2.00;92.20
78325;DHT22;67584;51.400;6.692;2024-01-07T00:17:26;2.00;92.20
78325;DHT22;67584;51.400;6.692;2024-01-07T00:19:52;2.10;92.20
78325;DHT22;67584;51.400;6.692;2024-01-07T00:22:17;2.10;92.20
78325;DHT22;67584;51.400;6.692;2024-01-07T00:24:43;1.90;92.20
78325;DHT22;67584;51.400;6.692;2024-01-07T00:27:09;2.20;92.20
78325;DHT22;67584;51.400;6.692;2024-01-07T00:29:35;2.10;92.20
78325;DHT22;67584;51.400;6.692;2024-01-07T00:32:01;2.00;92.20
78325;DHT22;67584;51.400;6.692;2024-01-07T00:34:27;1.90;92.20
78325;DHT22;67584;51.400;6.692;2024-01-07T00:36:53;2.10;92.20
78325;DHT22;67584;51.400;6.692;2024-01-07T00:39:18;2.10;92.20
78325;DHT22;67584;51.400;6.692;2024-01-07T00:41:44;2.00;92.20
78325;DHT22;67584;51.400;6.692;2024-01-07T00:44:10;2.10;92.20
78325;DHT22;67584;51.400;6.692;2024-01-07T00:46:35;2.00;92.20
78325;DHT22;67584;51.400;6.692;2024-01-07T00:49:01;2.10;92.20
78325;DHT22;67584;51.400;6.692;2024-01-07T00:51:27;1.90;92.20
78325;DHT22;67584;51.400;6.692;2024-01-07T00:53:52;1.90;92.20
78325;DHT22;67584;51.400;6.692;2024-01-07T00:56:18;2.10;92.20
78325;DHT22;67584;51.400;6.692;2024-01-07T00:58:44;2.00;92.20
78325;DHT22;67584;51.400;6.692;2024-01-07T01:01:09;2.20;92.20
78325;DHT22;67584;51.400;6.692;2024-01-07T01:03:36;2.00;92.20
78325;DHT22;67584;51.400;6.692;2024-01-07T01:06:01;2.00;92.20
78325;DHT22;67584;51.400;6.692;2024-01-07T01:08:28;2.10;92.10
78325;DHT22;67584;51.400;6.692;2024-01-07T01:10:53;2.10;92.10
78325;DHT22;67584;51.400;6.692;2024-01-07T01:13:19;2.10;92.10
78325;DHT22;67584;51.400;6.692;2024-01-07T01:15:45;2.00;92.10
78325;DHT22;67584;51.400;6.692;2024-01-07T01:18:10;2.10;92.00
78325;DHT22;67584;51.400;6.692;2024-01-07T01:20:36;1.90;92.00
78325;DHT22;67584;51.400;6.692;2024-01-07T01:23:02;2.10;92.00
78325;DHT22;67584;51.400;6.692;2024-01-07T01:25:27;2.10;92.00
78325;DHT22;67584;51.400;6.692;2024-01-07T01:27:55;2.00;92.00
78325;DHT22;67584;51.400;6.692;2024-01-07T01:30:21;2.10;92.00
78325;DHT22;67584;51.400;6.692;2024-01-07T01:32:47;1.90;91.90
78325;DHT22;67584;51.400;6.692;2024-01-07T01:35:13;1.90;91.80
78325;DHT22;67584;51.400;6.692;2024-01-07T01:37:39;2.00;91.90
78325;DHT22;67584;51.400;6.692;2024-01-07T01:40:06;1.80;91.80
78325;DHT22;67584;51.400;6.692;2024-01-07T01:42:31;1.90;91.80
78325;DHT22;67584;51.400;6.692;2024-01-07T01:44:58;1.90;91.80
78325;DHT22;67584;51.400;6.692;2024-01-07T01:47:28;1.80;91.70
78325;DHT22;67584;51.400;6.692;2024-01-07T01:49:53;1.90;91.70
78325;DHT22;67584;51.400;6.692;2024-01-07T01:52:20;1.80;91.70
78325;DHT22;67584;51.400;6.692;2024-01-07T01:54:46;1.90;91.80
78325;DHT22;67584;51.400;6.692;2024-01-07T01:57:16;1.80;91.80
78325;DHT22;67584;51.400;6.692;2024-01-07T01:59:44;1.80;91.80
78325;DHT22;67584;51.400;6.692;2024-01-07T02:02:10;1.80;91.90
78325;DHT22;67584;51.400;6.692;2024-01-07T02:04:36;2.00;91.90
78325;DHT22;67584;51.400;6.692;2024-01-07T02:07:02;1.90;92.00
78325;DHT22;67584;51.400;6.692;2024-01-07T02:09:28;2.10;91.90
78325;DHT22;67584;51.400;6.692;2024-01-07T02:12:01;1.90;91.90
78325;DHT22;67584;51.400;6.692;2024-01-07T02:14:27;1.90;91.80
78325;DHT22;67584;51.400;6.692;2024-01-07T02:16:53;2.00;91.80
78325;DHT22;67584;51.400;6.692;2024-01-07T02:19:20;1.80;91.60
78325;DHT22;67584;51.400;6.692;2024-01-07T02:21:47;1.70;91.60
78325;DHT22;67584;51.400;6.692;2024-01-07T02:24:16;1.80;91.60
78325;DHT22;67584;51.400;6.692;2024-01-07T02:26:42;1.80;91.70
78325;DHT22;67584;51.400;6.692;2024-01-07T02:29:07;1.70;91.70
78325;DHT22;67584;51.400;6.692;2024-01-07T02:31:33;1.70;91.70
78325;DHT22;67584;51.400;6.692;2024-01-07T02:33:59;1.70;91.80
78325;DHT22;67584;51.400;6.692;2024-01-07T02:36:24;1.70;91.70
78325;DHT22;67584;51.400;6.692;2024-01-07T02:38:50;1.80;91.70
78325;DHT22;67584;51.400;6.692;2024-01-07T02:41:16;1.80;91.80
78325;DHT22;67584;51.400;6.692;2024-01-07T02:43:41;1.70;91.90
78325;DHT22;67584;51.400;6.692;2024-01-07T02:46:08;1.90;91.90
78325;DHT22;67584;51.400;6.692;2024-01-07T02:48:33;1.70;92.00
78325;DHT22;67584;51.400;6.692;2024-01-07T02:51:00;1.90;91.90
78325;DHT22;67584;51.400;6.692;2024-01-07T02:53:25;1.80;91.90
78325;DHT22;67584;51.400;6.692;2024-01-07T02:55:51;1.90;91.90
78325;DHT22;67584;51.400;6.692;2024-01-07T02:58:16;1.80;91.90
78325;DHT22;67584;51.400;6.692;2024-01-07T03:00:42;2.00;92.00
78325;DHT22;67584;51.400;6.692;2024-01-07T03:03:08;1.80;92.00
78325;DHT22;67584;51.400;6.692;2024-01-07T03:05:33;1.80;91.90
78325;DHT22;67584;51.400;6.692;2024-01-07T03:07:59;1.70;92.00
78325;DHT22;67584;51.400;6.692;2024-01-07T03:10:26;1.70;91.90
78325;DHT22;67584;51.400;6.692;2024-01-07T03:12:52;1.70;91.90
78325;DHT22;67584;51.400;6.692;2024-01-07T03:15:17;1.80;92.00
78325;DHT22;67584;51.400;6.692;2024-01-07T03:17:43;1.70;91.90
78325;DHT22;67584;51.400;6.692;2024-01-07T03:20:10;1.60;91.90
78325;DHT22;67584;51.400;6.692;2024-01-07T03:22:35;1.60;92.00
78325;DHT22;67584;51.400;6.692;2024-01-07T03:25:01;1.70;92.00
78325;DHT22;67584;51.400;6.692;2024-01-07T03:27:27;1.80;92.00
78325;DHT22;67584;51.400;6.692;2024-01-07T03:29:53;1.60;91.80
78325;DHT22;67584;51.400;6.692;2024-01-07T03:32:18;1.60;91.90
78325;DHT22;67584;51.400;6.692;2024-01-07T03:34:44;1.70;91.70
78325;DHT22;67584;51.400;6.692;2024-01-07T03:37:09;1.50;91.80
78325;DHT22;67584;51.400;6.692;2024-01-07T03:39:35;1.50;91.70
78325;DHT22;67584;51.400;6.692;2024-01-07T03:42:01;1.60;91.50
78325;DHT22;67584;51.400;6.692;2024-01-07T03:44:27;1.70;91.40
78325;DHT22;67584;51.400;6.692;2024-01-07T03:46:52;1.50;91.20
78325;DHT22;67584;51.400;6.692;2024-01-07T03:49:18;1.60;91.20
78325;DHT22;67584;51.400;6.692;2024-01-07T03:51:44;1.60;91.20
78325;DHT22;67584;51.400;6.692;2024-01-07T03:54:09;1.60;91.20
78325;DHT22;67584;51.400;6.692;2024-01-07T03:56:35;1.60;91.00
78325;DHT22;67584;51.400;6.692;2024-01-07T03:59:01;1.50;91.10
78325;DHT22;67584;51.400;6.692;2024-01-07T04:01:26;1.60;91.10
78325;DHT22;67584;51.400;6.692;2024-01-07T04:03:52;1.30;91.10
78325;DHT22;67584;51.400;6.692;2024-01-07T04:06:17;1.40;91.10
78325;DHT22;67584;51.400;6.692;2024-01-07T04:08:43;1.20;91.30
78325;DHT22;67584;51.400;6.692;2024-01-07T04:11:09;1.30;91.30
78325;DHT22;67584;51.400;6.692;2024-01-07T04:13:34;1.40;91.30
78325;DHT22;67584;51.400;6.692;2024-01-07T04:16:00;1.50;91.40
78325;DHT22;67584;51.400;6.692;2024-01-07T04:18:25;1.50;91.30
78325;DHT22;67584;51.400;6.692;2024-01-07T04:20:51;1.50;91.20
78325;DHT22;67584;51.400;6.692;2024-01-07T04:23:17;1.30;91.20
78325;DHT22;67584;51.400;6.692;2024-01-07T04:25:42;1.30;91.20
78325;DHT22;67584;51.400;6.692;2024-01-07T04:28:09;1.30;91.20
78325;DHT22;67584;51.400;6.692;2024-01-07T04:30:35;1.30;91.20
78325;DHT22;67584;51.400;6.692;2024-01-07T04:33:01;1.40;91.30
78325;DHT22;67584;51.400;6.692;2024-01-07T04:35:26;1.40;91.20
78325;DHT22;67584;51.400;6.692;2024-01-07T04:37:52;1.20;91.20
78325;DHT22;67584;51.400;6.692;2024-01-07T04:40:18;1.20;91.10
78325;DHT22;67584;51.400;6.692;2024-01-07T04:42:43;1.10;91.10
78325;DHT22;67584;51.400;6.692;2024-01-07T04:45:09;1.20;91.00
78325;DHT22;67584;51.400;6.692;2024-01-07T04:47:35;1.30;90.70
78325;DHT22;67584;51.400;6.692;2024-01-07T04:50:00;1.40;90.70
78325;DHT22;67584;51.400;6.692;2024-01-07T04:52:26;1.10;90.50
78325;DHT22;67584;51.400;6.692;2024-01-07T04:54:55;1.10;90.70
78325;DHT22;67584;51.400;6.692;2024-01-07T04:57:22;1.40;90.70
78325;DHT22;67584;51.400;6.692;2024-01-07T04:59:49;1.30;90.50
78325;DHT22;67584;51.400;6.692;2024-01-07T05:02:15;1.00;90.30
78325;DHT22;67584;51.400;6.692;2024-01-07T05:04:41;1.20;90.20
78325;DHT22;67584;51.400;6.692;2024-01-07T05:07:07;1.30;90.30
78325;DHT22;67584;51.400;6.692;2024-01-07T05:09:33;1.20;90.10
78325;DHT22;67584;51.400;6.692;2024-01-07T05:11:59;1.30;90.20
78325;DHT22;67584;51.400;6.692;2024-01-07T05:14:25;1.20;90.10
78325;DHT22;67584;51.400;6.692;2024-01-07T05:16:52;1.20;90.10
78325;DHT22;67584;51.400;6.692;2024-01-07T05:19:18;1.10;90.00
78325;DHT22;67584;51.400;6.692;2024-01-07T05:21:44;1.10;90.10
78325;DHT22;67584;51.400;6.692;2024-01-07T05:24:09;1.20;90.40
78325;DHT22;67584;51.400;6.692;2024-01-07T05:26:43;1.20;90.30
78325;DHT22;67584;51.400;6.692;2024-01-07T05:29:09;1.20;90.00
78325;DHT22;67584;51.400;6.692;2024-01-07T05:31:35;1.10;89.70
78325;DHT22;67584;51.400;6.692;2024-01-07T05:34:00;1.40;89.70
78325;DHT22;67584;51.400;6.692;2024-01-07T05:36:26;1.10;89.70
78325;DHT22;67584;51.400;6.692;2024-01-07T05:38:52;1.30;89.60
78325;DHT22;67584;51.400;6.692;2024-01-07T05:41:17;1.40;89.80
78325;DHT22;67584;51.400;6.692;2024-01-07T05:43:43;1.20;89.90
78325;DHT22;67584;51.400;6.692;2024-01-07T05:46:09;1.30;89.90
78325;DHT22;67584;51.400;6.692;2024-01-07T05:48:43;1.20;90.00
78325;DHT22;67584;51.400;6.692;2024-01-07T05:51:09;1.20;90.00
78325;DHT22;67584;51.400;6.692;2024-01-07T05:53:35;1.20;89.80
78325;DHT22;67584;51.400;6.692;2024-01-07T05:56:01;1.20;89.90
78325;DHT22;67584;51.400;6.692;2024-01-07T05:58:26;1.20;89.80
78325;DHT22;67584;51.400;6.692;2024-01-07T06:00:52;1.10;89.80
78325;DHT22;67584;51.400;6.692;2024-01-07T06:03:18;1.20;90.00
78325;DHT22;67584;51.400;6.692;2024-01-07T06:05:43;1.30;90.10
78325;DHT22;67584;51.400;6.692;2024-01-07T06:08:09;1.10;89.90
78325;DHT22;67584;51.400;6.692;2024-01-07T06:10:35;0.90;90.00
78325;DHT22;67584;51.400;6.692;2024-01-07T06:13:01;1.00;90.10
78325;DHT22;67584;51.400;6.692;2024-01-07T06:15:29;1.20;90.10
78325;DHT22;67584;51.400;6.692;2024-01-07T06:17:55;1.00;90.10
78325;DHT22;67584;51.400;6.692;2024-01-07T06:20:21;1.30;90.00
78325;DHT22;67584;51.400;6.692;2024-01-07T06:22:46;1.00;89.80
78325;DHT22;67584;51.400;6.692;2024-01-07T06:25:12;1.00;89.70
78325;DHT22;67584;51.400;6.692;2024-01-07T06:27:41;1.20;89.70
78325;DHT22;67584;51.400;6.692;2024-01-07T06:30:07;1.00;89.80
78325;DHT22;67584;51.400;6.692;2024-01-07T06:32:33;1.00;89.90
78325;DHT22;67584;51.400;6.692;2024-01-07T06:34:59;1.10;89.80
78325;DHT22;67584;51.400;6.692;2024-01-07T06:37:25;1.00;89.70
78325;DHT22;67584;51.400;6.692;2024-01-07T06:39:51;1.20;89.70
78325;DHT22;67584;51.400;6.692;2024-01-07T06:42:17;1.20;89.50
78325;DHT22;67584;51.400;6.692;2024-01-07T06:44:43;1.10;89.60
78325;DHT22;67584;51.400;6.692;2024-01-07T06:47:08;1.00;89.60
78325;DHT22;67584;51.400;6.692;2024-01-07T06:49:34;1.20;89.70
78325;DHT22;67584;51.400;6.692;2024-01-07T06:52:00;1.10;89.60
78325;DHT22;67584;51.400;6.692;2024-01-07T06:54:26;1.10;89.70
78325;DHT22;67584;51.400;6.692;2024-01-07T06:56:52;1.00;89.50
78325;DHT22;67584;51.400;6.692;2024-01-07T06:59:18;1.00;89.30
78325;DHT22;67584;51.400;6.692;2024-01-07T07:01:43;1.10;89.30
78325;DHT22;67584;51.400;6.692;2024-01-07T07:04:09;1.00;89.30
78325;DHT22;67584;51.400;6.692;2024-01-07T07:06:35;1.10;89.60
78325;DHT22;67584;51.400;6.692;2024-01-07T07:09:01;1.10;89.90
78325;DHT22;67584;51.400;6.692;2024-01-07T07:11:26;1.20;88.90
78325;DHT22;67584;51.400;6.692;2024-01-07T07:13:52;1.10;88.10
78325;DHT22;67584;51.400;6.692;2024-01-07T07:16:17;1.10;88.20
78325;DHT22;67584;51.400;6.692;2024-01-07T07:18:43;1.20;88.30
78325;DHT22;67584;51.400;6.692;2024-01-07T07:21:09;1.10;88.50
78325;DHT22;67584;51.400;6.692;2024-01-07T07:23:34;1.20;88.40
78325;DHT22;67584;51.400;6.692;2024-01-07T07:26:00;0.80;88.60
78325;DHT22;67584;51.400;6.692;2024-01-07T07:28:26;1.00;88.50
78325;DHT22;67584;51.400;6.692;2024-01-07T07:30:52;1.00;88.30
78325;DHT22;67584;51.400;6.692;2024-01-07T07:33:18;1.10;87.60
78325;DHT22;67584;51.400;6.692;2024-01-07T07:35:44;1.00;87.60
78325;DHT22;67584;51.400;6.692;2024-01-07T07:38:09;0.90;87.70
78325;DHT22;67584;51.400;6.692;2024-01-07T07:40:35;0.90;87.80
78325;DHT22;67584;51.400;6.692;2024-01-07T07:43:01;0.90;88.10
78325;DHT22;67584;51.400;6.692;2024-01-07T07:45:26;1.10;88.00
78325;DHT22;67584;51.400;6.692;2024-01-07T07:47:52;1.20;88.20
78325;DHT22;67584;51.400;6.692;2024-01-07T07:50:18;1.00;88.30
78325;DHT22;67584;51.400;6.692;2024-01-07T07:52:43;1.00;88.10
78325;DHT22;67584;51.400;6.692;2024-01-07T07:55:10;0.80;88.00
78325;DHT22;67584;51.400;6.692;2024-01-07T07:57:36;0.80;88.20
78325;DHT22;67584;51.400;6.692;2024-01-07T08:00:04;1.10;87.70
78325;DHT22;67584;51.400;6.692;2024-01-07T08:02:31;0.90;87.40
78325;DHT22;67584;51.400;6.692;2024-01-07T08:04:56;0.90;87.40
78325;DHT22;67584;51.400;6.692;2024-01-07T08:07:22;0.80;87.60
78325;DHT22;67584;51.400;6.692;2024-01-07T08:09:47;0.80;87.30
78325;DHT22;67584;51.400;6.692;2024-01-07T08:12:13;0.70;87.20
78325;DHT22;67584;51.400;6.692;2024-01-07T08:14:39;0.90;87.10
78325;DHT22;67584;51.400;6.692;2024-01-07T08:17:08;0.80;86.70
78325;DHT22;67584;51.400;6.692;2024-01-07T08:19:33;0.80;86.30
78325;DHT22;67584;51.400;6.692;2024-01-07T08:21:59;0.70;86.20
78325;DHT22;67584;51.400;6.692;2024-01-07T08:24:25;0.80;86.00
78325;DHT22;67584;51.400;6.692;2024-01-07T08:26:51;0.70;85.80
78325;DHT22;67584;51.400;6.692;2024-01-07T08:29:17;0.80;86.50
78325;DHT22;67584;51.400;6.692;2024-01-07T08:31:43;0.90;86.50
78325;DHT22;67584;51.400;6.692;2024-01-07T08:34:08;0.90;86.60
78325;DHT22;67584;51.400;6.692;2024-01-07T08:36:34;0.70;86.00
78325;DHT22;67584;51.400;6.692;2024-01-07T08:39:00;0.80;86.30
78325;DHT22;67584;51.400;6.692;2024-01-07T08:41:26;1.00;86.10
78325;DHT22;67584;51.400;6.692;2024-01-07T08:43:52;0.70;85.30
78325;DHT22;67584;51.400;6.692;2024-01-07T08:46:24;0.90;85.80
78325;DHT22;67584;51.400;6.692;2024-01-07T08:48:50;1.00;85.80
78325;DHT22;67584;51.400;6.692;2024-01-07T08:51:15;0.80;86.00
78325;DHT22;67584;51.400;6.692;2024-01-07T08:53:41;0.80;87.00
78325;DHT22;67584;51.400;6.692;2024-01-07T08:56:07;0.70;87.30
78325;DHT22;67584;51.400;6.692;2024-01-07T08:58:33;0.60;87.10
78325;DHT22;67584;51.400;6.692;2024-01-07T09:00:59;0.70;86.10
78325;DHT22;67584;51.400;6.692;2024-01-07T09:03:24;0.80;85.30
78325;DHT22;67584;51.400;6.692;2024-01-07T09:05:58;0.70;85.00
78325;DHT22;67584;51.400;6.692;2024-01-07T09:08:23;0.70;85.40
78325;DHT22;67584;51.400;6.692;2024-01-07T09:10:49;0.90;85.00
78325;DHT22;67584;51.400;6.692;2024-01-07T09:13:16;1.00;85.00
78325;DHT22;67584;51.400;6.692;2024-01-07T09:15:42;0.80;84.60
78325;DHT22;67584;51.400;6.692;2024-01-07T09:18:07;0.70;84.70
78325;DHT22;67584;51.400;6.692;2024-01-07T09:20:33;0.70;84.80
78325;DHT22;67584;51.400;6.692;2024-01-07T09:22:59;0.60;84.90
78325;DHT22;67584;51.400;6.692;2024-01-07T09:25:27;0.60;84.40
78325;DHT22;67584;51.400;6.692;2024-01-07T09:27:53;0.70;84.30
78325;DHT22;67584;51.400;6.692;2024-01-07T09:30:19;0.80;84.20
78325;DHT22;67584;51.400;6.692;2024-01-07T09:32:44;0.90;84.20
78325;DHT22;67584;51.400;6.692;2024-01-07T09:35:10;1.00;84.40
78325;DHT22;67584;51.400;6.692;2024-01-07T09:37:36;0.80;83.90
78325;DHT22;67584;51.400;6.692;2024-01-07T09:40:02;0.80;84.20
78325;DHT22;67584;51.400;6.692;2024-01-07T09:42:30;1.00;83.70
78325;DHT22;67584;51.400;6.692;2024-01-07T09:44:55;0.80;83.50
78325;DHT22;67584;51.400;6.692;2024-01-07T09:47:22;1.00;83.50
78325;DHT22;67584;51.400;6.692;2024-01-07T09:49:49;0.70;83.70
78325;DHT22;67584;51.400;6.692;2024-01-07T09:52:15;0.70;83.80
78325;DHT22;67584;51.400;6.692;2024-01-07T09:54:48;0.80;83.60
78325;DHT22;67584;51.400;6.692;2024-01-07T09:57:16;0.70;83.70
78325;DHT22;67584;51.400;6.692;2024-01-07T09:59:42;0.90;83.90
78325;DHT22;67584;51.400;6.692;2024-01-07T10:02:07;1.00;83.80
78325;DHT22;67584;51.400;6.692;2024-01-07T10:04:35;0.90;83.80
78325;DHT22;67584;51.400;6.692;2024-01-07T10:07:04;1.00;83.20
78325;DHT22;67584;51.400;6.692;2024-01-07T10:09:33;0.90;83.50
78325;DHT22;67584;51.400;6.692;2024-01-07T10:11:59;1.10;83.10
78325;DHT22;67584;51.400;6.692;2024-01-07T10:14:25;1.00;83.20
78325;DHT22;67584;51.400;6.692;2024-01-07T10:16:52;1.00;83.10
78325;DHT22;67584;51.400;6.692;2024-01-07T10:19:23;1.00;83.50
78325;DHT22;67584;51.400;6.692;2024-01-07T10:22:09;0.90;83.10
78325;DHT22;67584;51.400;6.692;2024-01-07T10:24:38;1.00;83.20
78325;DHT22;67584;51.400;6.692;2024-01-07T10:27:05;0.90;83.50
78325;DHT22;67584;51.400;6.692;2024-01-07T10:29:32;1.30;83.10
78325;DHT22;67584;51.400;6.692;2024-01-07T10:31:58;1.10;82.80
78325;DHT22;67584;51.400;6.692;2024-01-07T10:34:33;1.10;82.00
78325;DHT22;67584;51.400;6.692;2024-01-07T10:37:00;1.40;82.20
78325;DHT22;67584;51.400;6.692;2024-01-07T10:39:26;1.00;82.10
78325;DHT22;67584;51.400;6.692;2024-01-07T10:41:52;1.20;81.80
78325;DHT22;67584;51.400;6.692;2024-01-07T10:44:26;1.20;82.40
78325;DHT22;67584;51.400;6.692;2024-01-07T10:46:54;1.60;82.10
78325;DHT22;67584;51.400;6.692;2024-01-07T10:49:21;1.50;82.00
78325;DHT22;67584;51.400;6.692;2024-01-07T10:52:07;1.40;81.40
78325;DHT22;67584;51.400;6.692;2024-01-07T10:54:34;1.30;81.20
78325;DHT22;67584;51.400;6.692;2024-01-07T10:57:13;1.20;80.70
78325;DHT22;67584;51.400;6.692;2024-01-07T10:59:45;1.30;80.80
78325;DHT22;67584;51.400;6.692;2024-01-07T11:02:11;1.10;80.90
78325;DHT22;67584;51.400;6.692;2024-01-07T11:05:00;1.10;81.40
78325;DHT22;67584;51.400;6.692;2024-01-07T11:07:41;1.00;80.60
78325;DHT22;67584;51.400;6.692;2024-01-07T11:10:24;0.80;81.10
78325;DHT22;67584;51.400;6.692;2024-01-07T11:12:55;1.00;83.90
78325;DHT22;67584;51.400;6.692;2024-01-07T11:18:21;0.90;80.20
78325;DHT22;67584;51.400;6.692;2024-01-07T11:20:48;1.10;81.50
78325;DHT22;67584;51.400;6.692;2024-01-07T11:23:33;1.10;80.90
78325;DHT22;67584;51.400;6.692;2024-01-07T11:26:02;1.10;80.50
78325;DHT22;67584;51.400;6.692;2024-01-07T11:28:50;1.20;80.10
78325;DHT22;67584;51.400;6.692;2024-01-07T11:31:21;1.20;79.80
78325;DHT22;67584;51.400;6.692;2024-01-07T11:33:50;1.10;79.60
78325;DHT22;67584;51.400;6.692;2024-01-07T11:36:17;1.00;79.30
78325;DHT22;67584;51.400;6.692;2024-01-07T11:38:48;1.00;79.30
78325;DHT22;67584;51.400;6.692;2024-01-07T11:41:15;0.90;79.20
78325;DHT22;67584;51.400;6.692;2024-01-07T11:43:57;0.90;79.40
78325;DHT22;67584;51.400;6.692;2024-01-07T11:46:27;1.00;79.50
78325;DHT22;67584;51.400;6.692;2024-01-07T11:48:54;1.10;79.70
78325;DHT22;67584;51.400;6.692;2024-01-07T11:51:29;1.10;79.00
78325;DHT22;67584;51.400;6.692;2024-01-07T11:53:57;1.20;78.30
78325;DHT22;67584;51.400;6.692;2024-01-07T11:56:24;1.10;78.10
78325;DHT22;67584;51.400;6.692;2024-01-07T11:58:50;1.00;77.80
78325;DHT22;67584;51.400;6.692;2024-01-07T12:01:16;1.00;78.50
78325;DHT22;67584;51.400;6.692;2024-01-07T12:03:43;1.00;77.30
78325;DHT22;67584;51.400;6.692;2024-01-07T12:06:09;1.00;77.60
78325;DHT22;67584;51.400;6.692;2024-01-07T12:08:42;1.00;77.80
78325;DHT22;67584;51.400;6.692;2024-01-07T12:11:09;1.00;76.80
78325;DHT22;67584;51.400;6.692;2024-01-07T12:13:37;0.60;77.50
78325;DHT22;67584;51.400;6.692;2024-01-07T12:16:04;0.70;78.00
78325;DHT22;67584;51.400;6.692;2024-01-07T12:18:30;0.70;77.50
78325;DHT22;67584;51.400;6.692;2024-01-07T12:20:59;0.80;78.00
78325;DHT22;67584;51.400;6.692;2024-01-07T12:23:28;0.60;77.00
78325;DHT22;67584;51.400;6.692;2024-01-07T12:25:54;0.60;76.20
78325;DHT22;67584;51.400;6.692;2024-01-07T12:28:21;0.40;76.90
78325;DHT22;67584;51.400;6.692;2024-01-07T12:30:50;0.40;75.40
78325;DHT22;67584;51.400;6.692;2024-01-07T12:33:22;0.40;75.60
78325;DHT22;67584;51.400;6.692;2024-01-07T12:35:47;0.50;75.20
78325;DHT22;67584;51.400;6.692;2024-01-07T12:38:14;0.80;73.90
78325;DHT22;67584;51.400;6.692;2024-01-07T12:40:40;0.90;74.40
78325;DHT22;67584;51.400;6.692;2024-01-07T12:43:06;1.00;73.40
78325;DHT22;67584;51.400;6.692;2024-01-07T12:45:33;1.40;73.80
78325;DHT22;67584;51.400;6.692;2024-01-07T12:47:58;2.20;70.90
78325;DHT22;67584;51.400;6.692;2024-01-07T12:50:28;2.90;67.30
78325;DHT22;67584;51.400;6.692;2024-01-07T12:52:55;2.70;66.20
78325;DHT22;67584;51.400;6.692;2024-01-07T12:55:22;2.10;68.10
78325;DHT22;67584;51.400;6.692;2024-01-07T12:57:48;1.60;69.90
78325;DHT22;67584;51.400;6.692;2024-01-07T13:00:15;1.50;71.40
78325;DHT22;67584;51.400;6.692;2024-01-07T13:02:41;1.20;71.60
78325;DHT22;67584;51.400;6.692;2024-01-07T13:05:07;1.40;72.40
78325;DHT22;67584;51.400;6.692;2024-01-07T13:07:33;2.20;68.70
78325;DHT22;67584;51.400;6.692;2024-01-07T13:09:58;2.20;68.10
78325;DHT22;67584;51.400;6.692;2024-01-07T13:12:25;1.80;68.60
78325;DHT22;67584;51.400;6.692;2024-01-07T13:14:52;1.50;71.50
78325;DHT22;67584;51.400;6.692;2024-01-07T13:17:18;1.10;71.50
78325;DHT22;67584;51.400;6.692;2024-01-07T13:19:44;1.00;71.80
78325;DHT22;67584;51.400;6.692;2024-01-07T13:22:10;1.00;72.70
78325;DHT22;67584;51.400;6.692;2024-01-07T13:24:36;1.00;73.20
78325;DHT22;67584;51.400;6.692;2024-01-07T13:27:02;0.80;73.20
78325;DHT22;67584;51.400;6.692;2024-01-07T13:29:28;0.70;73.70
78325;DHT22;67584;51.400;6.692;2024-01-07T13:31:54;0.70;73.90
78325;DHT22;67584;51.400;6.692;2024-01-07T13:34:19;0.50;73.60
78325;DHT22;67584;51.400;6.692;2024-01-07T13:36:45;0.80;73.50
78325;DHT22;67584;51.400;6.692;2024-01-07T13:39:12;0.50;73.80
78325;DHT22;67584;51.400;6.692;2024-01-07T13:41:40;0.60;72.90
78325;DHT22;67584;51.400;6.692;2024-01-07T13:44:05;0.50;73.00
78325;DHT22;67584;51.400;6.692;2024-01-07T13:46:32;0.40;73.00
78325;DHT22;67584;51.400;6.692;2024-01-07T13:48:59;0.50;73.30
78325;DHT22;67584;51.400;6.692;2024-01-07T13:51:25;0.40;73.40
78325;DHT22;67584;51.400;6.692;2024-01-07T13:53:51;0.30;73.50
78325;DHT22;67584;51.400;6.692;2024-01-07T13:56:17;0.40;73.00
78325;DHT22;67584;51.400;6.692;2024-01-07T13:58:43;0.50;73.30
78325;DHT22;67584;51.400;6.692;2024-01-07T14:01:13;0.30;72.80
78325;DHT22;67584;51.400;6.692;2024-01-07T14:03:44;0.50;71.80
78325;DHT22;67584;51.400;6.692;2024-01-07T14:06:13;0.30;72.00
78325;DHT22;67584;51.400;6.692;2024-01-07T14:08:38;0.20;71.80
78325;DHT22;67584;51.400;6.692;2024-01-07T14:11:04;0.40;72.40
78325;DHT22;67584;51.400;6.692;2024-01-07T14:13:32;0.50;72.10
78325;DHT22;67584;51.400;6.692;2024-01-07T14:15:58;0.10;71.80
78325;DHT22;67584;51.400;6.692;2024-01-07T14:18:23;0.30;72.30
78325;DHT22;67584;51.400;6.692;2024-01-07T14:20:49;0.20;72.80
78325;DHT22;67584;51.400;6.692;2024-01-07T14:23:15;0.10;72.40
78325;DHT22;67584;51.400;6.692;2024-01-07T14:25:40;0.10;71.70
78325;DHT22;67584;51.400;6.692;2024-01-07T14:28:07;0.20;72.50
78325;DHT22;67584;51.400;6.692;2024-01-07T14:30:33;0.20;71.30
78325;DHT22;67584;51.400;6.692;2024-01-07T14:32:58;0.30;71.40
78325;DHT22;67584;51.400;6.692;2024-01-07T14:35:24;0.20;71.50
78325;DHT22;67584;51.400;6.692;2024-01-07T14:37:52;0.20;70.00
78325;DHT22;67584;51.400;6.692;2024-01-07T14:40:20;0.10;72.10
78325;DHT22;67584;51.400;6.692;2024-01-07T14:42:46;0.10;71.50
78325;DHT22;67584;51.400;6.692;2024-01-07T14:45:11;0.30;71.60
78325;DHT22;67584;51.400;6.692;2024-01-07T14:47:38;0.20;72.30
78325;DHT22;67584;51.400;6.692;2024-01-07T14:50:03;0.30;72.10
78325;DHT22;67584;51.400;6.692;2024-01-07T14:52:29;0.10;71.70
78325;DHT22;67584;51.400;6.692;2024-01-07T14:54:55;0.00;71.60
78325;DHT22;67584;51.400;6.692;2024-01-07T14:57:22;0.10;72.50
78325;DHT22;67584;51.400;6.692;2024-01-07T14:59:47;0.20;70.90
78325;DHT22;67584;51.400;6.692;2024-01-07T15:02:13;0.10;71.80
78325;DHT22;67584;51.400;6.692;2024-01-07T15:04:38;0.10;71.90
78325;DHT22;67584;51.400;6.692;2024-01-07T15:07:04;0.00;72.40
78325;DHT22;67584;51.400;6.692;2024-01-07T15:09:30;0.20;73.10
78325;DHT22;67584;51.400;6.692;2024-01-07T15:11:56;0.00;71.50
78325;DHT22;67584;51.400;6.692;2024-01-07T15:14:24;0.00;71.30
78325;DHT22;67584;51.400;6.692;2024-01-07T15:16:49;0.10;72.10
78325;DHT22;67584;51.400;6.692;2024-01-07T15:19:19;0.10;72.70
78325;DHT22;67584;51.400;6.692;2024-01-07T15:21:46;0.20;73.10
78325;DHT22;67584;51.400;6.692;2024-01-07T15:24:11;0.00;72.90
78325;DHT22;67584;51.400;6.692;2024-01-07T15:26:37;0.20;73.10
78325;DHT22;67584;51.400;6.692;2024-01-07T15:29:04;0.00;71.60
78325;DHT22;67584;51.400;6.692;2024-01-07T15:31:30;0.00;72.60
78325;DHT22;67584;51.400;6.692;2024-01-07T15:33:56;0.00;71.90
78325;DHT22;67584;51.400;6.692;2024-01-07T15:36:21;0.00;72.50
78325;DHT22;67584;51.400;6.692;2024-01-07T15:38:47;0.00;71.80
78325;DHT22;67584;51.400;6.692;2024-01-07T15:41:13;0.10;71.70
78325;DHT22;67584;51.400;6.692;2024-01-07T15:43:39;0.00;72.60